Weather at RAF Cranwell

Public forecast

Using degrees Celsius for public forecast. Weather courtesy of forecast.io.

Current aviation weather report (METAR) for RAF Cranwell

Retrieved 2021/10/19 22:50 UTC (21 minutes ago):

EGYD 192250Z AUTO 22017KT 9999 // SCT010/// BKN100/// 17/16 Q1003

Aviation forecast (TAF) for RAF Cranwell

Forecast is more than 12 hours old.

Retrieved 2019/08/31 06:18 UTC (2 years ago):

TAF EGYD 310712Z 3106/3118 CNL